sensor_id;sensor_type;location;lat;lon;timestamp;temperature;humidity
59067;DHT22;44854;50.838;4.438;2022-12-24T06:23:13;11.20;99.90
59067;DHT22;44854;50.838;4.438;2022-12-24T06:25:39;11.20;99.90
59067;DHT22;44854;50.838;4.438;2022-12-24T06:28:04;11.20;99.90
59067;DHT22;44854;50.838;4.438;2022-12-24T06:30:30;11.20;99.90
59067;DHT22;44854;50.838;4.438;2022-12-24T06:32:55;11.20;99.90
59067;DHT22;44854;50.838;4.438;2022-12-24T06:35:21;11.20;99.90
59067;DHT22;44854;50.838;4.438;2022-12-24T06:37:49;11.20;99.90
59067;DHT22;44854;50.838;4.438;2022-12-24T06:40:14;11.20;99.90
59067;DHT22;44854;50.838;4.438;2022-12-24T06:42:40;11.20;99.90
59067;DHT22;44854;50.838;4.438;2022-12-24T06:45:06;11.20;99.90
59067;DHT22;44854;50.838;4.438;2022-12-24T06:47:31;11.10;99.90
59067;DHT22;44854;50.838;4.438;2022-12-24T06:49:57;11.20;99.90
59067;DHT22;44854;50.838;4.438;2022-12-24T06:52:23;11.10;99.90
59067;DHT22;44854;50.838;4.438;2022-12-24T06:54:48;11.10;99.90
59067;DHT22;44854;50.838;4.438;2022-12-24T06:57:14;11.20;99.90
59067;DHT22;44854;50.838;4.438;2022-12-24T06:59:39;11.30;99.90
59067;DHT22;44854;50.838;4.438;2022-12-24T07:02:05;11.20;99.90
59067;DHT22;44854;50.838;4.438;2022-12-24T07:04:30;11.20;99.90
59067;DHT22;44854;50.838;4.438;2022-12-24T07:06:56;11.30;99.90
59067;DHT22;44854;50.838;4.438;2022-12-24T07:09:21;11.30;99.90
59067;DHT22;44854;50.838;4.438;2022-12-24T07:11:47;11.30;99.90
59067;DHT22;44854;50.838;4.438;2022-12-24T07:14:12;11.20;99.90
59067;DHT22;44854;50.838;4.438;2022-12-24T07:16:38;11.20;99.90
59067;DHT22;44854;50.838;4.438;2022-12-24T07:19:03;11.20;99.90
59067;DHT22;44854;50.838;4.438;2022-12-24T07:21:30;11.30;99.90
59067;DHT22;44854;50.838;4.438;2022-12-24T07:23:56;11.20;99.90
59067;DHT22;44854;50.838;4.438;2022-12-24T07:26:21;11.10;99.90
59067;DHT22;44854;50.838;4.438;2022-12-24T07:28:47;11.10;99.90
59067;DHT22;44854;50.838;4.438;2022-12-24T07:31:13;11.10;99.90
59067;DHT22;44854;50.838;4.438;2022-12-24T07:33:38;11.20;99.90
59067;DHT22;44854;50.838;4.438;2022-12-24T07:36:05;11.20;99.90
59067;DHT22;44854;50.838;4.438;2022-12-24T07:38:31;11.30;99.90
59067;DHT22;44854;50.838;4.438;2022-12-24T07:40:57;11.30;99.90
59067;DHT22;44854;50.838;4.438;2022-12-24T07:43:23;11.10;99.90
59067;DHT22;44854;50.838;4.438;2022-12-24T07:45:49;11.10;99.90
59067;DHT22;44854;50.838;4.438;2022-12-24T07:48:14;11.10;99.90
59067;DHT22;44854;50.838;4.438;2022-12-24T07:50:40;11.00;99.90
59067;DHT22;44854;50.838;4.438;2022-12-24T07:53:06;11.10;99.90
59067;DHT22;44854;50.838;4.438;2022-12-24T07:55:31;11.10;99.90
59067;DHT22;44854;50.838;4.438;2022-12-24T07:57:57;11.10;99.90
59067;DHT22;44854;50.838;4.438;2022-12-24T08:00:22;11.00;99.90
59067;DHT22;44854;50.838;4.438;2022-12-24T08:02:48;11.10;99.90
59067;DHT22;44854;50.838;4.438;2022-12-24T08:05:13;11.00;99.90
59067;DHT22;44854;50.838;4.438;2022-12-24T08:07:39;11.00;99.90
59067;DHT22;44854;50.838;4.438;2022-12-24T08:10:05;11.00;99.90
59067;DHT22;44854;50.838;4.438;2022-12-24T08:12:31;11.10;99.90
59067;DHT22;44854;50.838;4.438;2022-12-24T08:14:56;11.10;99.90
59067;DHT22;44854;50.838;4.438;2022-12-24T08:17:22;11.10;99.90
59067;DHT22;44854;50.838;4.438;2022-12-24T08:19:47;11.10;99.90
59067;DHT22;44854;50.838;4.438;2022-12-24T08:22:14;11.10;99.90
59067;DHT22;44854;50.838;4.438;2022-12-24T08:24:39;11.20;99.90
59067;DHT22;44854;50.838;4.438;2022-12-24T08:27:05;11.20;99.90
59067;DHT22;44854;50.838;4.438;2022-12-24T08:29:30;11.20;99.90
59067;DHT22;44854;50.838;4.438;2022-12-24T08:31:56;11.40;99.90
59067;DHT22;44854;50.838;4.438;2022-12-24T08:34:21;11.30;99.90
59067;DHT22;44854;50.838;4.438;2022-12-24T08:36:47;11.20;99.90
59067;DHT22;44854;50.838;4.438;2022-12-24T08:39:12;11.30;99.90
59067;DHT22;44854;50.838;4.438;2022-12-24T08:41:38;11.40;99.90
59067;DHT22;44854;50.838;4.438;2022-12-24T08:44:03;11.50;99.90
59067;DHT22;44854;50.838;4.438;2022-12-24T08:46:29;11.40;99.90
59067;DHT22;44854;50.838;4.438;2022-12-24T08:48:54;11.40;99.90
59067;DHT22;44854;50.838;4.438;2022-12-24T08:51:20;11.40;99.90
59067;DHT22;44854;50.838;4.438;2022-12-24T08:53:46;11.40;99.90
59067;DHT22;44854;50.838;4.438;2022-12-24T08:56:11;11.50;99.90
59067;DHT22;44854;50.838;4.438;2022-12-24T08:58:37;11.40;99.90
59067;DHT22;44854;50.838;4.438;2022-12-24T09:01:10;11.40;99.90
59067;DHT22;44854;50.838;4.438;2022-12-24T09:03:36;11.50;99.90
59067;DHT22;44854;50.838;4.438;2022-12-24T09:06:02;11.50;99.90
59067;DHT22;44854;50.838;4.438;2022-12-24T09:08:28;11.40;99.90
59067;DHT22;44854;50.838;4.438;2022-12-24T09:10:53;11.50;99.90
59067;DHT22;44854;50.838;4.438;2022-12-24T09:13:19;11.60;99.90
59067;DHT22;44854;50.838;4.438;2022-12-24T09:15:51;11.60;99.90
59067;DHT22;44854;50.838;4.438;2022-12-24T09:18:17;11.70;99.90
59067;DHT22;44854;50.838;4.438;2022-12-24T09:20:42;11.70;99.90
59067;DHT22;44854;50.838;4.438;2022-12-24T09:23:08;11.80;99.90
59067;DHT22;44854;50.838;4.438;2022-12-24T09:25:33;11.80;99.90
59067;DHT22;44854;50.838;4.438;2022-12-24T09:27:59;11.60;99.90
59067;DHT22;44854;50.838;4.438;2022-12-24T09:30:24;11.70;99.90
59067;DHT22;44854;50.838;4.438;2022-12-24T09:32:50;11.60;99.90
59067;DHT22;44854;50.838;4.438;2022-12-24T09:35:17;11.60;99.90
59067;DHT22;44854;50.838;4.438;2022-12-24T09:37:42;11.60;99.90
59067;DHT22;44854;50.838;4.438;2022-12-24T09:40:14;11.70;99.90
59067;DHT22;44854;50.838;4.438;2022-12-24T09:45:34;11.60;99.90
59067;DHT22;44854;50.838;4.438;2022-12-24T09:48:01;11.60;99.90
59067;DHT22;44854;50.838;4.438;2022-12-24T09:50:30;11.60;99.90
59067;DHT22;44854;50.838;4.438;2022-12-24T09:52:57;11.70;99.90
59067;DHT22;44854;50.838;4.438;2022-12-24T09:55:27;11.70;99.90
59067;DHT22;44854;50.838;4.438;2022-12-24T09:57:53;11.70;99.90
59067;DHT22;44854;50.838;4.438;2022-12-24T10:00:20;11.70;99.90
59067;DHT22;44854;50.838;4.438;2022-12-24T10:02:46;11.70;99.90
59067;DHT22;44854;50.838;4.438;2022-12-24T10:05:13;11.70;99.90
59067;DHT22;44854;50.838;4.438;2022-12-24T10:12:50;11.70;99.90
59067;DHT22;44854;50.838;4.438;2022-12-24T10:15:22;11.70;99.90
59067;DHT22;44854;50.838;4.438;2022-12-24T10:28:21;12.00;99.90
59067;DHT22;44854;50.838;4.438;2022-12-24T10:30:48;12.10;99.90
59067;DHT22;44854;50.838;4.438;2022-12-24T10:33:19;12.10;99.90
59067;DHT22;44854;50.838;4.438;2022-12-24T10:35:48;12.10;99.90
59067;DHT22;44854;50.838;4.438;2022-12-24T10:38:16;12.10;99.90
59067;DHT22;44854;50.838;4.438;2022-12-24T10:40:47;12.20;99.90
59067;DHT22;44854;50.838;4.438;2022-12-24T10:43:14;12.30;99.90
59067;DHT22;44854;50.838;4.438;2022-12-24T10:45:41;12.40;99.90
59067;DHT22;44854;50.838;4.438;2022-12-24T10:48:08;12.40;99.90
59067;DHT22;44854;50.838;4.438;2022-12-24T10:50:38;12.50;99.90
59067;DHT22;44854;50.838;4.438;2022-12-24T10:55:43;12.50;99.90
59067;DHT22;44854;50.838;4.438;2022-12-24T10:58:15;12.40;99.90
59067;DHT22;44854;50.838;4.438;2022-12-24T11:00:41;12.30;99.90
59067;DHT22;44854;50.838;4.438;2022-12-24T11:05:42;12.30;99.90
59067;DHT22;44854;50.838;4.438;2022-12-24T11:10:39;12.40;99.90
59067;DHT22;44854;50.838;4.438;2022-12-24T11:13:17;12.60;99.90
59067;DHT22;44854;50.838;4.438;2022-12-24T11:15:47;12.60;99.90
59067;DHT22;44854;50.838;4.438;2022-12-24T11:18:14;12.60;99.90
59067;DHT22;44854;50.838;4.438;2022-12-24T11:20:40;12.50;99.90
59067;DHT22;44854;50.838;4.438;2022-12-24T11:23:12;12.40;99.90
59067;DHT22;44854;50.838;4.438;2022-12-24T11:25:39;12.40;99.90
59067;DHT22;44854;50.838;4.438;2022-12-24T11:30:43;12.40;99.90
59067;DHT22;44854;50.838;4.438;2022-12-24T11:33:20;12.50;99.90
59067;DHT22;44854;50.838;4.438;2022-12-24T11:35:47;12.40;99.90
59067;DHT22;44854;50.838;4.438;2022-12-24T11:38:16;12.60;99.90
59067;DHT22;44854;50.838;4.438;2022-12-24T11:40:44;12.50;99.90
59067;DHT22;44854;50.838;4.438;2022-12-24T11:43:17;12.60;99.90
59067;DHT22;44854;50.838;4.438;2022-12-24T11:45:53;12.80;99.90
59067;DHT22;44854;50.838;4.438;2022-12-24T11:48:29;12.90;99.90
59067;DHT22;44854;50.838;4.438;2022-12-24T11:51:01;12.90;99.90
59067;DHT22;44854;50.838;4.438;2022-12-24T11:53:33;12.80;99.90
59067;DHT22;44854;50.838;4.438;2022-12-24T11:56:01;12.80;99.90
59067;DHT22;44854;50.838;4.438;2022-12-24T12:00:59;12.80;99.90
59067;DHT22;44854;50.838;4.438;2022-12-24T12:03:31;12.90;99.90
59067;DHT22;44854;50.838;4.438;2022-12-24T12:05:58;12.70;99.90
59067;DHT22;44854;50.838;4.438;2022-12-24T12:08:25;12.60;99.90
59067;DHT22;44854;50.838;4.438;2022-12-24T12:10:52;12.60;99.90
59067;DHT22;44854;50.838;4.438;2022-12-24T12:13:19;12.70;99.90
59067;DHT22;44854;50.838;4.438;2022-12-24T12:15:48;12.70;99.90
59067;DHT22;44854;50.838;4.438;2022-12-24T12:18:17;12.80;99.90
59067;DHT22;44854;50.838;4.438;2022-12-24T12:21:03;12.80;99.90
59067;DHT22;44854;50.838;4.438;2022-12-24T12:23:35;12.80;99.90
59067;DHT22;44854;50.838;4.438;2022-12-24T12:31:12;12.80;99.90
59067;DHT22;44854;50.838;4.438;2022-12-24T12:33:40;12.80;99.90
59067;DHT22;44854;50.838;4.438;2022-12-24T12:36:09;12.90;99.90
59067;DHT22;44854;50.838;4.438;2022-12-24T12:38:35;13.00;99.90
59067;DHT22;44854;50.838;4.438;2022-12-24T12:51:42;13.00;99.90
59067;DHT22;44854;50.838;4.438;2022-12-24T12:56:37;12.80;99.90
59067;DHT22;44854;50.838;4.438;2022-12-24T12:59:20;12.80;99.90
59067;DHT22;44854;50.838;4.438;2022-12-24T13:22:15;13.20;99.90
59067;DHT22;44854;50.838;4.438;2022-12-24T13:24:48;13.30;99.90
59067;DHT22;44854;50.838;4.438;2022-12-24T13:27:16;13.20;99.90
59067;DHT22;44854;50.838;4.438;2022-12-24T13:34:44;13.20;99.90
59067;DHT22;44854;50.838;4.438;2022-12-24T13:37:21;13.20;99.90
59067;DHT22;44854;50.838;4.438;2022-12-24T13:40:00;13.20;99.90
59067;DHT22;44854;50.838;4.438;2022-12-24T13:42:45;13.20;99.90
59067;DHT22;44854;50.838;4.438;2022-12-24T13:45:45;13.20;99.90
59067;DHT22;44854;50.838;4.438;2022-12-24T13:53:21;13.30;99.90
59067;DHT22;44854;50.838;4.438;2022-12-24T13:55:51;13.30;99.90
59067;DHT22;44854;50.838;4.438;2022-12-24T13:58:18;13.30;99.90
59067;DHT22;44854;50.838;4.438;2022-12-24T14:00:56;13.40;99.90
59067;DHT22;44854;50.838;4.438;2022-12-24T14:03:28;13.40;99.90
59067;DHT22;44854;50.838;4.438;2022-12-24T14:05:58;13.50;99.90
59067;DHT22;44854;50.838;4.438;2022-12-24T14:08:26;13.50;99.90
59067;DHT22;44854;50.838;4.438;2022-12-24T14:16:02;13.50;99.90
59067;DHT22;44854;50.838;4.438;2022-12-24T14:18:29;13.50;99.90
59067;DHT22;44854;50.838;4.438;2022-12-24T14:20:58;13.40;99.90
59067;DHT22;44854;50.838;4.438;2022-12-24T14:25:50;13.20;99.90
59067;DHT22;44854;50.838;4.438;2022-12-24T14:28:16;13.20;99.90
59067;DHT22;44854;50.838;4.438;2022-12-24T14:30:46;13.30;99.90
59067;DHT22;44854;50.838;4.438;2022-12-24T14:33:27;13.50;99.90
59067;DHT22;44854;50.838;4.438;2022-12-24T14:35:53;13.50;99.90
59067;DHT22;44854;50.838;4.438;2022-12-24T14:38:18;13.50;99.90
59067;DHT22;44854;50.838;4.438;2022-12-24T14:46:24;13.30;99.90
59067;DHT22;44854;50.838;4.438;2022-12-24T14:48:58;13.20;99.90
59067;DHT22;44854;50.838;4.438;2022-12-24T14:56:38;13.20;99.90
59067;DHT22;44854;50.838;4.438;2022-12-24T14:59:17;13.30;99.90
59067;DHT22;44854;50.838;4.438;2022-12-24T15:01:43;13.20;99.90
59067;DHT22;44854;50.838;4.438;2022-12-24T15:06:40;13.20;99.90
59067;DHT22;44854;50.838;4.438;2022-12-24T15:09:16;13.20;99.90
59067;DHT22;44854;50.838;4.438;2022-12-24T15:11:43;13.20;99.90
59067;DHT22;44854;50.838;4.438;2022-12-24T15:14:08;13.20;99.90
59067;DHT22;44854;50.838;4.438;2022-12-24T15:16:35;13.20;99.90
59067;DHT22;44854;50.838;4.438;2022-12-24T15:19:04;13.20;99.90
59067;DHT22;44854;50.838;4.438;2022-12-24T15:21:32;13.20;99.90
59067;DHT22;44854;50.838;4.438;2022-12-24T15:23:58;13.20;99.90
59067;DHT22;44854;50.838;4.438;2022-12-24T15:26:28;13.20;99.90
59067;DHT22;44854;50.838;4.438;2022-12-24T15:28:55;13.10;99.90
59067;DHT22;44854;50.838;4.438;2022-12-24T15:31:22;13.10;99.90
59067;DHT22;44854;50.838;4.438;2022-12-24T15:33:49;13.10;99.90
59067;DHT22;44854;50.838;4.438;2022-12-24T15:36:15;13.10;99.90
59067;DHT22;44854;50.838;4.438;2022-12-24T15:38:42;13.10;99.90
59067;DHT22;44854;50.838;4.438;2022-12-24T15:41:16;13.10;99.90
59067;DHT22;44854;50.838;4.438;2022-12-24T15:43:43;13.10;99.90
59067;DHT22;44854;50.838;4.438;2022-12-24T15:46:08;13.00;99.90
59067;DHT22;44854;50.838;4.438;2022-12-24T15:48:34;12.90;99.90
59067;DHT22;44854;50.838;4.438;2022-12-24T15:51:02;12.90;99.90
59067;DHT22;44854;50.838;4.438;2022-12-24T15:53:33;13.00;99.90
59067;DHT22;44854;50.838;4.438;2022-12-24T15:56:01;13.00;99.90
59067;DHT22;44854;50.838;4.438;2022-12-24T15:58:29;12.90;99.90
59067;DHT22;44854;50.838;4.438;2022-12-24T16:03:33;12.80;99.90
59067;DHT22;44854;50.838;4.438;2022-12-24T16:08:31;12.80;99.90
59067;DHT22;44854;50.838;4.438;2022-12-24T16:16:14;12.80;99.90
59067;DHT22;44854;50.838;4.438;2022-12-24T16:18:54;12.80;99.90
59067;DHT22;44854;50.838;4.438;2022-12-24T16:23:46;12.80;99.90
59067;DHT22;44854;50.838;4.438;2022-12-24T16:26:12;12.80;99.90
59067;DHT22;44854;50.838;4.438;2022-12-24T16:28:38;12.70;99.90
59067;DHT22;44854;50.838;4.438;2022-12-24T16:31:03;12.70;99.90
59067;DHT22;44854;50.838;4.438;2022-12-24T16:33:29;12.60;99.90
59067;DHT22;44854;50.838;4.438;2022-12-24T16:35:55;12.60;99.90
59067;DHT22;44854;50.838;4.438;2022-12-24T16:38:20;12.60;99.90
59067;DHT22;44854;50.838;4.438;2022-12-24T16:40:46;12.60;99.90
59067;DHT22;44854;50.838;4.438;2022-12-24T16:43:12;12.60;99.90
59067;DHT22;44854;50.838;4.438;2022-12-24T16:46:05;12.60;99.90
59067;DHT22;44854;50.838;4.438;2022-12-24T16:48:31;12.60;99.90
59067;DHT22;44854;50.838;4.438;2022-12-24T16:51:00;12.60;99.90
59067;DHT22;44854;50.838;4.438;2022-12-24T16:53:25;12.60;99.90
59067;DHT22;44854;50.838;4.438;2022-12-24T16:55:51;12.60;99.90
59067;DHT22;44854;50.838;4.438;2022-12-24T16:58:18;12.50;99.90
59067;DHT22;44854;50.838;4.438;2022-12-24T17:00:43;12.40;99.90
59067;DHT22;44854;50.838;4.438;2022-12-24T17:03:09;12.50;99.90
59067;DHT22;44854;50.838;4.438;2022-12-24T17:05:38;12.40;99.90
59067;DHT22;44854;50.838;4.438;2022-12-24T17:08:04;12.40;99.90
59067;DHT22;44854;50.838;4.438;2022-12-24T17:10:30;12.40;99.90
59067;DHT22;44854;50.838;4.438;2022-12-24T17:12:56;12.20;99.90
59067;DHT22;44854;50.838;4.438;2022-12-24T17:15:22;12.10;99.90
59067;DHT22;44854;50.838;4.438;2022-12-24T17:17:47;12.00;99.90
59067;DHT22;44854;50.838;4.438;2022-12-24T17:20:13;11.90;99.90
59067;DHT22;44854;50.838;4.438;2022-12-24T17:22:38;11.90;99.90
59067;DHT22;44854;50.838;4.438;2022-12-24T17:25:04;11.70;99.90
59067;DHT22;44854;50.838;4.438;2022-12-24T17:27:30;11.70;99.90
59067;DHT22;44854;50.838;4.438;2022-12-24T17:29:55;11.70;99.90
59067;DHT22;44854;50.838;4.438;2022-12-24T17:32:21;11.60;99.90
59067;DHT22;44854;50.838;4.438;2022-12-24T17:34:47;11.40;99.90
59067;DHT22;44854;50.838;4.438;2022-12-24T17:37:12;11.30;99.90
59067;DHT22;44854;50.838;4.438;2022-12-24T17:39:38;11.30;99.90
59067;DHT22;44854;50.838;4.438;2022-12-24T17:42:04;11.20;99.90
59067;DHT22;44854;50.838;4.438;2022-12-24T17:44:29;11.10;99.90
59067;DHT22;44854;50.838;4.438;2022-12-24T17:46:55;11.10;99.90
59067;DHT22;44854;50.838;4.438;2022-12-24T17:49:20;11.10;99.90
59067;DHT22;44854;50.838;4.438;2022-12-24T17:51:46;11.00;99.90
59067;DHT22;44854;50.838;4.438;2022-12-24T17:54:12;11.10;99.90
59067;DHT22;44854;50.838;4.438;2022-12-24T17:56:37;11.00;99.90
59067;DHT22;44854;50.838;4.438;2022-12-24T17:59:03;10.90;99.90
59067;DHT22;44854;50.838;4.438;2022-12-24T18:01:28;10.90;99.90
59067;DHT22;44854;50.838;4.438;2022-12-24T18:03:57;10.90;99.90
59067;DHT22;44854;50.838;4.438;2022-12-24T18:06:24;10.90;99.90
59067;DHT22;44854;50.838;4.438;2022-12-24T18:08:49;11.00;99.90
59067;DHT22;44854;50.838;4.438;2022-12-24T18:11:20;11.00;99.90
59067;DHT22;44854;50.838;4.438;2022-12-24T18:13:46;11.00;99.90
59067;DHT22;44854;50.838;4.438;2022-12-24T18:16:21;11.00;99.90
59067;DHT22;44854;50.838;4.438;2022-12-24T18:18:48;11.00;99.90
59067;DHT22;44854;50.838;4.438;2022-12-24T18:21:14;10.90;99.90
59067;DHT22;44854;50.838;4.438;2022-12-24T18:23:41;10.80;99.90
59067;DHT22;44854;50.838;4.438;2022-12-24T18:26:07;11.00;99.90
59067;DHT22;44854;50.838;4.438;2022-12-24T18:28:32;10.90;99.90
59067;DHT22;44854;50.838;4.438;2022-12-24T18:31:02;10.90;99.90
59067;DHT22;44854;50.838;4.438;2022-12-24T18:33:28;11.10;99.90
59067;DHT22;44854;50.838;4.438;2022-12-24T18:35:54;11.00;99.90
59067;DHT22;44854;50.838;4.438;2022-12-24T18:38:19;11.00;99.90
59067;DHT22;44854;50.838;4.438;2022-12-24T18:40:45;11.00;99.90
59067;DHT22;44854;50.838;4.438;2022-12-24T18:43:10;11.00;99.90
59067;DHT22;44854;50.838;4.438;2022-12-24T18:45:42;11.10;99.90
59067;DHT22;44854;50.838;4.438;2022-12-24T18:48:08;11.10;99.90
59067;DHT22;44854;50.838;4.438;2022-12-24T18:50:35;11.00;99.90
59067;DHT22;44854;50.838;4.438;2022-12-24T18:53:01;11.00;99.90
59067;DHT22;44854;50.838;4.438;2022-12-24T18:55:26;11.00;99.90
59067;DHT22;44854;50.838;4.438;2022-12-24T18:57:52;11.00;99.90
59067;DHT22;44854;50.838;4.438;2022-12-24T19:00:18;11.00;99.90
59067;DHT22;44854;50.838;4.438;2022-12-24T19:02:43;11.10;99.90
59067;DHT22;44854;50.838;4.438;2022-12-24T19:05:09;11.00;99.90
59067;DHT22;44854;50.838;4.438;2022-12-24T19:07:35;11.10;99.90
59067;DHT22;44854;50.838;4.438;2022-12-24T19:10:00;11.10;99.90
59067;DHT22;44854;50.838;4.438;2022-12-24T19:12:26;11.10;99.90
59067;DHT22;44854;50.838;4.438;2022-12-24T19:14:52;11.10;99.90
59067;DHT22;44854;50.838;4.438;2022-12-24T19:17:17;11.20;99.90
59067;DHT22;44854;50.838;4.438;2022-12-24T19:19:43;11.20;99.90
59067;DHT22;44854;50.838;4.438;2022-12-24T19:22:08;11.20;99.90
59067;DHT22;44854;50.838;4.438;2022-12-24T19:24:34;11.30;99.90
59067;DHT22;44854;50.838;4.438;2022-12-24T19:26:59;11.20;99.90
59067;DHT22;44854;50.838;4.438;2022-12-24T19:29:25;11.20;99.90
59067;DHT22;44854;50.838;4.438;2022-12-24T19:31:50;11.30;99.90
59067;DHT22;44854;50.838;4.438;2022-12-24T19:34:16;11.30;99.90
59067;DHT22;44854;50.838;4.438;2022-12-24T19:36:41;11.30;99.90
59067;DHT22;44854;50.838;4.438;2022-12-24T19:39:07;11.40;99.90
59067;DHT22;44854;50.838;4.438;2022-12-24T19:41:33;11.30;99.90
59067;DHT22;44854;50.838;4.438;2022-12-24T19:43:59;11.40;99.90
59067;DHT22;44854;50.838;4.438;2022-12-24T19:46:26;11.40;99.90
59067;DHT22;44854;50.838;4.438;2022-12-24T19:48:53;11.50;99.90
59067;DHT22;44854;50.838;4.438;2022-12-24T19:51:19;11.40;99.90
59067;DHT22;44854;50.838;4.438;2022-12-24T19:53:45;11.50;99.90
59067;DHT22;44854;50.838;4.438;2022-12-24T19:56:13;11.50;99.90
59067;DHT22;44854;50.838;4.438;2022-12-24T19:58:39;11.50;99.90
59067;DHT22;44854;50.838;4.438;2022-12-24T20:01:05;11.50;99.90
59067;DHT22;44854;50.838;4.438;2022-12-24T20:03:30;11.50;99.90
59067;DHT22;44854;50.838;4.438;2022-12-24T20:05:56;11.50;99.90
59067;DHT22;44854;50.838;4.438;2022-12-24T20:08:22;11.50;99.90
59067;DHT22;44854;50.838;4.438;2022-12-24T20:10:47;11.50;99.90
59067;DHT22;44854;50.838;4.438;2022-12-24T20:13:13;11.50;99.90
59067;DHT22;44854;50.838;4.438;2022-12-24T20:15:39;11.50;99.90
59067;DHT22;44854;50.838;4.438;2022-12-24T20:18:05;11.60;99.90
59067;DHT22;44854;50.838;4.438;2022-12-24T20:20:31;11.60;99.90
59067;DHT22;44854;50.838;4.438;2022-12-24T20:22:57;11.60;99.90
59067;DHT22;44854;50.838;4.438;2022-12-24T20:25:22;11.50;99.90
59067;DHT22;44854;50.838;4.438;2022-12-24T20:27:48;11.60;99.90
59067;DHT22;44854;50.838;4.438;2022-12-24T20:30:14;11.60;99.90
59067;DHT22;44854;50.838;4.438;2022-12-24T20:32:39;11.50;99.90
59067;DHT22;44854;50.838;4.438;2022-12-24T20:35:05;11.50;99.90
59067;DHT22;44854;50.838;4.438;2022-12-24T20:37:31;11.60;99.90
59067;DHT22;44854;50.838;4.438;2022-12-24T20:39:56;11.50;99.90
59067;DHT22;44854;50.838;4.438;2022-12-24T20:42:22;11.50;99.90
59067;DHT22;44854;50.838;4.438;2022-12-24T20:44:48;11.60;99.90
59067;DHT22;44854;50.838;4.438;2022-12-24T20:47:14;11.50;99.90
59067;DHT22;44854;50.838;4.438;2022-12-24T20:49:39;11.60;99.90
59067;DHT22;44854;50.838;4.438;2022-12-24T20:52:05;11.60;99.90
59067;DHT22;44854;50.838;4.438;2022-12-24T20:54:30;11.60;99.90
59067;DHT22;44854;50.838;4.438;2022-12-24T20:56:56;11.50;99.90
59067;DHT22;44854;50.838;4.438;2022-12-24T20:59:22;11.60;99.90
59067;DHT22;44854;50.838;4.438;2022-12-24T21:01:47;11.60;99.90
59067;DHT22;44854;50.838;4.438;2022-12-24T21:04:13;11.60;99.90
59067;DHT22;44854;50.838;4.438;2022-12-24T21:06:38;11.60;99.90
59067;DHT22;44854;50.838;4.438;2022-12-24T21:09:04;11.60;99.90
59067;DHT22;44854;50.838;4.438;2022-12-24T21:11:30;11.70;99.90
59067;DHT22;44854;50.838;4.438;2022-12-24T21:14:15;11.70;99.90
59067;DHT22;44854;50.838;4.438;2022-12-24T21:16:41;11.70;99.90
59067;DHT22;44854;50.838;4.438;2022-12-24T21:19:08;11.70;99.90
59067;DHT22;44854;50.838;4.438;2022-12-24T21:21:35;11.80;99.90
59067;DHT22;44854;50.838;4.438;2022-12-24T21:24:01;11.70;99.90
59067;DHT22;44854;50.838;4.438;2022-12-24T21:26:27;11.70;99.90
59067;DHT22;44854;50.838;4.438;2022-12-24T21:28:52;11.80;99.90
59067;DHT22;44854;50.838;4.438;2022-12-24T21:31:18;11.70;99.90
59067;DHT22;44854;50.838;4.438;2022-12-24T21:33:44;11.80;99.90
59067;DHT22;44854;50.838;4.438;2022-12-24T21:36:10;11.80;99.90
59067;DHT22;44854;50.838;4.438;2022-12-24T21:38:36;11.90;99.90
59067;DHT22;44854;50.838;4.438;2022-12-24T21:41:03;11.80;99.90
59067;DHT22;44854;50.838;4.438;2022-12-24T21:43:29;11.80;99.90
59067;DHT22;44854;50.838;4.438;2022-12-24T21:45:55;11.60;99.90
59067;DHT22;44854;50.838;4.438;2022-12-24T21:48:20;11.60;99.90
59067;DHT22;44854;50.838;4.438;2022-12-24T21:51:04;11.70;99.90
59067;DHT22;44854;50.838;4.438;2022-12-24T21:53:30;11.70;99.90
59067;DHT22;44854;50.838;4.438;2022-12-24T21:56:14;11.60;99.90
59067;DHT22;44854;50.838;4.438;2022-12-24T21:58:39;11.60;99.90
59067;DHT22;44854;50.838;4.438;2022-12-24T22:01:06;11.50;99.90
59067;DHT22;44854;50.838;4.438;2022-12-24T22:03:32;11.60;99.90
59067;DHT22;44854;50.838;4.438;2022-12-24T22:05:57;11.60;99.90
59067;DHT22;44854;50.838;4.438;2022-12-24T22:08:23;11.60;99.90
59067;DHT22;44854;50.838;4.438;2022-12-24T22:11:10;11.60;99.90
59067;DHT22;44854;50.838;4.438;2022-12-24T22:13:54;11.60;99.90
59067;DHT22;44854;50.838;4.438;2022-12-24T22:16:20;11.60;99.90
59067;DHT22;44854;50.838;4.438;2022-12-24T22:18:45;11.70;99.90
59067;DHT22;44854;50.838;4.438;2022-12-24T22:21:11;11.70;99.90
59067;DHT22;44854;50.838;4.438;2022-12-24T22:23:36;11.70;99.90
59067;DHT22;44854;50.838;4.438;2022-12-24T22:26:11;11.70;99.90
59067;DHT22;44854;50.838;4.438;2022-12-24T22:28:37;11.70;99.90
59067;DHT22;44854;50.838;4.438;2022-12-24T22:31:03;11.60;99.90
59067;DHT22;44854;50.838;4.438;2022-12-24T22:33:28;11.50;99.90
59067;DHT22;44854;50.838;4.438;2022-12-24T22:35:56;11.50;99.90
59067;DHT22;44854;50.838;4.438;2022-12-24T22:38:21;11.50;99.90
59067;DHT22;44854;50.838;4.438;2022-12-24T22:40:47;11.50;99.90
59067;DHT22;44854;50.838;4.438;2022-12-24T22:43:12;11.60;99.90
59067;DHT22;44854;50.838;4.438;2022-12-24T22:45:38;11.70;99.90
59067;DHT22;44854;50.838;4.438;2022-12-24T22:48:04;11.80;99.90
59067;DHT22;44854;50.838;4.438;2022-12-24T22:50:30;11.80;99.90
59067;DHT22;44854;50.838;4.438;2022-12-24T22:52:55;11.80;99.90
59067;DHT22;44854;50.838;4.438;2022-12-24T22:55:21;11.80;99.90
59067;DHT22;44854;50.838;4.438;2022-12-24T22:57:47;11.80;99.90
59067;DHT22;44854;50.838;4.438;2022-12-24T23:00:17;11.70;99.90
59067;DHT22;44854;50.838;4.438;2022-12-24T23:03:00;11.60;99.90
59067;DHT22;44854;50.838;4.438;2022-12-24T23:05:26;11.70;99.90
59067;DHT22;44854;50.838;4.438;2022-12-24T23:07:52;11.80;99.90
59067;DHT22;44854;50.838;4.438;2022-12-24T23:10:17;11.80;99.90
59067;DHT22;44854;50.838;4.438;2022-12-24T23:12:43;11.90;99.90
59067;DHT22;44854;50.838;4.438;2022-12-24T23:15:27;11.90;99.90
59067;DHT22;44854;50.838;4.438;2022-12-24T23:17:53;11.90;99.90
